Time;durP1;ratioP1;P1;durP2;ratioP2;P2;SDS_P1;SDS_P2;PMS_P1;PMS_P2;Temp;Humidity;BMP_temperature;BMP_pressure;BME280_temperature;BME280_humidity;BME280_pressure;Samples;Min_cycle;Max_cycle;Signal;HPM_P1;HPM_P2
2022/01/12 00:00:22;;;;;;;35.88;13.15;;;;;;;;;;4995777;28;20440;-61
2022/01/12 00:02:48;;;;;;;39.20;14.35;;;;;;;;;;4995602;28;20147;-60
2022/01/12 00:05:18;;;;;;;37.13;12.07;;;;;;;;;;4995787;28;20078;-60
2022/01/12 00:07:46;;;;;;;35.30;11.55;;;;;;;;;;4995095;28;20088;-61
2022/01/12 00:10:12;;;;;;;35.38;11.90;;;;;;;;;;4995621;28;20109;-61
2022/01/12 00:12:38;;;;;;;38.90;10.60;;;;;;;;;;4995363;28;20398;-60
2022/01/12 00:15:04;;;;;;;25.63;9.98;;;;;;;;;;4995741;28;20030;-61
2022/01/12 00:17:30;;;;;;;27.00;9.35;;;;;;;;;;5014977;28;20421;-61
2022/01/12 00:19:56;;;;;;;24.13;10.55;;;;;;;;;;5013874;28;20466;-61
2022/01/12 00:22:22;;;;;;;30.45;10.30;;;;;;;;;;5014838;28;20022;-61
2022/01/12 00:33:11;;;;;;;36.58;10.90;;;;;;;;;;4977563;28;20042;-61
2022/01/12 00:35:37;;;;;;;;;;;;;;;;;;4995161;28;20031;-61
2022/01/12 00:38:03;;;;;;;36.30;11.13;;;;;;;;;;4995009;28;19939;-61
2022/01/12 00:40:29;;;;;;;38.97;11.73;;;;;;;;;;4994910;28;20023;-61
2022/01/12 00:42:56;;;;;;;35.33;11.80;;;;;;;;;;4994660;28;20019;-61
2022/01/12 00:45:22;;;;;;;41.22;13.18;;;;;;;;;;4994741;28;20038;-61
2022/01/12 00:47:49;;;;;;;37.22;12.20;;;;;;;;;;4994800;28;20023;-61
2022/01/12 00:50:15;;;;;;;43.85;11.82;;;;;;;;;;4994989;28;20034;-60
2022/01/12 00:52:41;;;;;;;43.33;11.70;;;;;;;;;;4994892;28;20022;-61
2022/01/12 00:55:08;;;;;;;42.72;12.32;;;;;;;;;;4975235;28;20034;-61
2022/01/12 00:57:34;;;;;;;34.72;11.85;;;;;;;;;;4976634;28;20114;-61
2022/01/12 01:00:01;;;;;;;44.38;13.48;;;;;;;;;;4985415;28;20026;-61
2022/01/12 01:02:27;;;;;;;36.17;11.85;;;;;;;;;;4994073;28;20023;-61
2022/01/12 01:04:54;;;;;;;45.22;12.77;;;;;;;;;;4993314;28;20554;-61
2022/01/12 01:07:20;;;;;;;48.72;14.73;;;;;;;;;;4994407;28;20032;-61
2022/01/12 01:09:58;;;;;;;41.47;11.32;;;;;;;;;;4991681;28;20030;-61
2022/01/12 01:12:25;;;;;;;45.25;13.68;;;;;;;;;;5007253;28;20065;-61
2022/01/12 01:15:05;;;;;;;55.20;13.20;;;;;;;;;;4993034;28;20015;-61
2022/01/12 01:25:43;;;;;;;43.50;12.13;;;;;;;;;;4992608;28;20494;-61
2022/01/12 01:28:11;;;;;;;38.22;12.85;;;;;;;;;;4979200;28;20499;-60
2022/01/12 01:30:40;;;;;;;46.22;11.80;;;;;;;;;;4961056;28;20033;-61
2022/01/12 01:33:09;;;;;;;46.72;12.15;;;;;;;;;;4987322;28;20053;-61
2022/01/12 01:35:40;;;;;;;47.10;13.20;;;;;;;;;;4993454;28;20037;-61
2022/01/12 01:38:09;;;;;;;58.33;13.98;;;;;;;;;;4991278;28;20112;-61
2022/01/12 01:40:37;;;;;;;56.08;13.45;;;;;;;;;;4966005;28;20034;-61
2022/01/12 01:53:53;;;;;;;40.35;12.50;;;;;;;;;;4990730;28;20497;-61
2022/01/12 01:56:19;;;;;;;36.58;12.23;;;;;;;;;;4993152;28;20034;-61
2022/01/12 01:58:49;;;;;;;48.13;13.10;;;;;;;;;;4981426;28;20022;-61
2022/01/12 02:01:16;;;;;;;60.05;12.40;;;;;;;;;;4987446;28;20450;-61
2022/01/12 02:03:54;;;;;;;45.85;12.18;;;;;;;;;;4981708;28;20022;-61
2022/01/12 02:06:20;;;;;;;34.20;10.82;;;;;;;;;;4980893;28;20037;-61
2022/01/12 02:08:46;;;;;;;40.47;11.32;;;;;;;;;;4981577;28;20034;-61
2022/01/12 02:11:38;;;;;;;40.38;11.55;;;;;;;;;;4988508;28;20041;-61
2022/01/12 02:14:12;;;;;;;37.65;11.07;;;;;;;;;;4982858;28;20044;-61
2022/01/12 02:16:50;;;;;;;34.83;11.23;;;;;;;;;;4997688;28;20037;-61
2022/01/12 02:19:41;;;;;;;37.33;10.77;;;;;;;;;;4988703;28;20117;-61
2022/01/12 02:35:52;;;;;;;48.15;12.68;;;;;;;;;;4997350;28;20040;-61
2022/01/12 02:41:03;;;;;;;40.90;10.95;;;;;;;;;;4993682;28;20038;-61
2022/01/12 02:51:36;;;;;;;35.88;10.82;;;;;;;;;;4995699;28;20490;-61
2022/01/12 02:54:03;;;;;;;36.97;10.50;;;;;;;;;;4994380;28;20034;-61
2022/01/12 02:56:32;;;;;;;24.77;9.00;;;;;;;;;;4963990;28;20439;-61
2022/01/12 02:58:59;;;;;;;34.88;9.70;;;;;;;;;;4993453;28;20033;-61
2022/01/12 03:04:00;;;;;;;27.40;9.30;;;;;;;;;;4974218;28;20550;-61
2022/01/12 03:06:33;;;;;;;33.58;10.50;;;;;;;;;;4992603;28;20014;-61
2022/01/12 03:08:59;;;;;;;;;;;;;;;;;;4993101;28;20041;-61
2022/01/12 03:11:26;;;;;;;32.28;9.95;;;;;;;;;;4973730;28;19906;-61
2022/01/12 03:13:55;;;;;;;31.63;10.43;;;;;;;;;;4974964;28;20049;-61
2022/01/12 03:16:24;;;;;;;29.02;9.63;;;;;;;;;;4985862;28;20509;-61
2022/01/12 03:18:55;;;;;;;22.90;9.43;;;;;;;;;;4989910;28;20022;-61
2022/01/12 03:21:23;;;;;;;32.13;10.52;;;;;;;;;;4992701;28;20438;-61
2022/01/12 03:23:51;;;;;;;28.10;11.35;;;;;;;;;;4974742;28;20446;-61
2022/01/12 03:26:18;;;;;;;32.95;11.10;;;;;;;;;;4977471;28;20065;-61
2022/01/12 03:28:52;;;;;;;30.58;11.45;;;;;;;;;;4978572;28;20026;-61
2022/01/12 03:31:21;;;;;;;30.52;12.20;;;;;;;;;;4978869;28;20034;-61
2022/01/12 03:38:52;;;;;;;29.17;10.30;;;;;;;;;;4996008;28;20112;-61
2022/01/12 03:41:18;;;;;;;23.85;10.63;;;;;;;;;;5015764;28;20061;-61
2022/01/12 03:43:45;;;;;;;24.13;10.00;;;;;;;;;;4997513;28;20196;-61
2022/01/12 03:46:11;;;;;;;20.63;8.48;;;;;;;;;;4998135;28;20057;-61
2022/01/12 03:48:37;;;;;;;18.23;8.05;;;;;;;;;;4989286;28;20509;-61
2022/01/12 03:51:04;;;;;;;19.92;8.80;;;;;;;;;;4978343;28;20121;-61
2022/01/12 03:53:30;;;;;;;21.20;7.85;;;;;;;;;;4974762;28;20097;-61
2022/01/12 03:55:57;;;;;;;13.10;7.45;;;;;;;;;;4958843;28;20030;-61
2022/01/12 03:58:23;;;;;;;14.45;6.72;;;;;;;;;;4984413;28;20033;-61
2022/01/12 04:00:50;;;;;;;16.85;6.85;;;;;;;;;;4978116;28;20105;-61
2022/01/12 04:03:17;;;;;;;16.13;7.38;;;;;;;;;;4976141;28;20113;-61
2022/01/12 04:08:29;;;;;;;23.08;8.43;;;;;;;;;;4977804;28;20025;-61
2022/01/12 04:10:57;;;;;;;17.85;7.97;;;;;;;;;;4990092;28;20479;-61
2022/01/12 04:13:26;;;;;;;27.20;8.77;;;;;;;;;;4977950;28;20037;-60
2022/01/12 04:15:54;;;;;;;19.05;8.13;;;;;;;;;;4998446;28;20018;-61
2022/01/12 04:18:20;;;;;;;21.35;9.50;;;;;;;;;;4997350;28;20036;-61
2022/01/12 04:20:49;;;;;;;18.17;9.55;;;;;;;;;;4977084;28;20027;-61
2022/01/12 04:23:17;;;;;;;20.90;10.18;;;;;;;;;;4990735;28;20038;-61
2022/01/12 04:26:09;;;;;;;29.15;11.23;;;;;;;;;;4978223;28;20037;-61
2022/01/12 04:28:35;;;;;;;28.67;11.98;;;;;;;;;;5000281;28;20038;-61
2022/01/12 04:31:01;;;;;;;28.02;12.60;;;;;;;;;;4971310;28;20035;-61
2022/01/12 04:33:30;;;;;;;28.95;13.07;;;;;;;;;;4972795;28;20034;-61
2022/01/12 04:35:56;;;;;;;35.30;14.18;;;;;;;;;;4994914;28;20077;-61
2022/01/12 04:38:24;;;;;;;46.80;16.00;;;;;;;;;;4977058;28;20138;-61
2022/01/12 04:40:51;;;;;;;37.40;15.80;;;;;;;;;;4977333;28;20018;-61
2022/01/12 04:43:18;;;;;;;34.80;14.73;;;;;;;;;;4994890;28;20556;-61
2022/01/12 04:46:08;;;;;;;30.83;14.02;;;;;;;;;;4978012;28;20045;-61
2022/01/12 04:49:07;;;;;;;27.98;13.27;;;;;;;;;;4977186;28;20041;-61
2022/01/12 04:51:21;;;;;;;25.83;12.98;;;;;;;;;;4974082;28;20038;-61
2022/01/12 04:53:47;;;;;;;25.73;13.68;;;;;;;;;;4958460;28;20078;-60
2022/01/12 04:56:13;;;;;;;37.00;15.48;;;;;;;;;;4993471;28;20045;-69
2022/01/12 04:58:40;;;;;;;26.48;13.85;;;;;;;;;;4997384;28;20084;-61
2022/01/12 05:01:13;;;;;;;29.40;12.38;;;;;;;;;;4997066;28;20033;-61
2022/01/12 05:06:57;;;;;;;30.52;12.07;;;;;;;;;;4977079;28;20041;-61
2022/01/12 05:14:59;;;;;;;22.88;11.45;;;;;;;;;;4992163;28;20139;-61
2022/01/12 05:17:26;;;;;;;31.10;13.63;;;;;;;;;;4976846;28;20026;-61
2022/01/12 05:19:52;;;;;;;27.65;12.52;;;;;;;;;;4976748;28;20031;-61
2022/01/12 05:22:19;;;;;;;34.53;14.45;;;;;;;;;;4976822;28;20122;-61
2022/01/12 05:24:46;;;;;;;29.02;13.75;;;;;;;;;;4976574;28;20092;-61
2022/01/12 05:27:12;;;;;;;32.38;12.32;;;;;;;;;;4994074;28;20027;-61
2022/01/12 05:29:38;;;;;;;29.58;14.05;;;;;;;;;;4994006;28;20030;-61
2022/01/12 05:32:06;;;;;;;31.67;13.20;;;;;;;;;;4977093;28;20045;-61
2022/01/12 05:34:32;;;;;;;28.95;13.07;;;;;;;;;;5009276;28;20018;-61
2022/01/12 05:36:59;;;;;;;27.60;12.25;;;;;;;;;;4976607;28;20089;-61
2022/01/12 05:39:25;;;;;;;24.95;12.73;;;;;;;;;;4976161;28;20105;-61
2022/01/12 05:41:51;;;;;;;27.50;11.45;;;;;;;;;;4976434;28;20041;-61
2022/01/12 05:44:18;;;;;;;26.80;11.45;;;;;;;;;;4976428;28;20033;-61
2022/01/12 05:46:45;;;;;;;27.20;11.25;;;;;;;;;;4976515;28;20125;-61
2022/01/12 05:49:36;;;;;;;26.33;10.02;;;;;;;;;;4976023;28;20124;-61
2022/01/12 05:52:06;;;;;;;22.35;10.18;;;;;;;;;;4975914;28;20483;-61
2022/01/12 05:54:32;;;;;;;28.95;11.30;;;;;;;;;;4974254;28;20630;-61
2022/01/12 05:56:59;;;;;;;28.63;10.70;;;;;;;;;;4975434;28;20525;-61
2022/01/12 05:59:25;;;;;;;34.83;14.65;;;;;;;;;;4978378;28;20033;-61
2022/01/12 06:01:52;;;;;;;30.13;14.07;;;;;;;;;;4976759;28;20026;-61
2022/01/12 06:04:18;;;;;;;32.42;14.40;;;;;;;;;;4981059;28;20030;-61
2022/01/12 06:06:44;;;;;;;31.98;12.55;;;;;;;;;;4982830;28;20031;-61
2022/01/12 06:09:11;;;;;;;33.50;14.10;;;;;;;;;;4974353;28;20030;-61
2022/01/12 06:11:38;;;;;;;38.33;13.70;;;;;;;;;;4971485;28;20042;-61
2022/01/12 06:14:07;;;;;;;29.02;13.27;;;;;;;;;;4987096;28;20026;-61
2022/01/12 06:16:33;;;;;;;34.38;13.95;;;;;;;;;;4971911;28;20034;-64
2022/01/12 06:19:00;;;;;;;48.97;14.25;;;;;;;;;;4959297;28;20384;-64
2022/01/12 06:21:31;;;;;;;42.67;15.82;;;;;;;;;;4975064;28;20172;-64
2022/01/12 06:24:03;;;;;;;45.70;16.77;;;;;;;;;;4970642;28;20035;-64
2022/01/12 06:26:29;;;;;;;54.70;20.88;;;;;;;;;;4974809;28;20027;-65
2022/01/12 06:31:37;;;;;;;69.70;25.35;;;;;;;;;;4985111;28;20034;-64
2022/01/12 06:34:03;;;;;;;64.28;23.63;;;;;;;;;;4958322;28;20031;-63
2022/01/12 06:36:29;;;;;;;74.97;23.95;;;;;;;;;;4986473;28;20026;-62
2022/01/12 06:38:56;;;;;;;62.75;23.50;;;;;;;;;;4973556;28;20046;-62
2022/01/12 06:41:24;;;;;;;65.00;23.52;;;;;;;;;;4974794;28;20092;-62
2022/01/12 06:43:53;;;;;;;66.18;24.83;;;;;;;;;;4974386;28;20030;-62
2022/01/12 06:46:25;;;;;;;57.90;22.42;;;;;;;;;;4979360;28;20084;-63
2022/01/12 06:48:51;;;;;;;61.72;23.98;;;;;;;;;;4982499;28;20034;-62
2022/01/12 06:51:17;;;;;;;69.35;23.02;;;;;;;;;;4988894;28;20026;-62
2022/01/12 06:53:44;;;;;;;61.95;22.17;;;;;;;;;;4976214;28;20561;-62
2022/01/12 06:56:15;;;;;;;68.18;23.88;;;;;;;;;;4972949;28;20022;-70
2022/01/12 06:58:46;;;;;;;56.70;21.15;;;;;;;;;;4978354;28;20038;-62
2022/01/12 07:01:13;;;;;;;48.67;20.20;;;;;;;;;;4979961;28;20045;-62
2022/01/12 07:03:44;;;;;;;48.92;20.90;;;;;;;;;;4978728;28;20058;-62
2022/01/12 07:06:11;;;;;;;53.53;22.35;;;;;;;;;;4978308;28;20117;-62
2022/01/12 07:08:39;;;;;;;56.95;21.45;;;;;;;;;;4978033;28;20027;-62
2022/01/12 07:11:07;;;;;;;62.30;21.42;;;;;;;;;;4978442;28;20031;-62
2022/01/12 07:13:34;;;;;;;47.10;21.17;;;;;;;;;;4978394;28;20042;-62
2022/01/12 07:16:00;;;;;;;47.40;18.33;;;;;;;;;;4978501;28;20092;-62
2022/01/12 07:18:29;;;;;;;47.60;16.50;;;;;;;;;;4981384;28;20014;-62
2022/01/12 07:20:56;;;;;;;49.00;15.43;;;;;;;;;;4981059;28;20030;-63
2022/01/12 07:23:22;;;;;;;38.38;12.55;;;;;;;;;;4999118;28;20026;-62
2022/01/12 07:25:48;;;;;;;31.50;13.13;;;;;;;;;;4998792;28;20026;-62
2022/01/12 07:28:14;;;;;;;43.67;11.82;;;;;;;;;;4999202;28;20030;-62
2022/01/12 07:30:40;;;;;;;43.67;12.52;;;;;;;;;;4998711;28;20029;-63
2022/01/12 07:33:06;;;;;;;43.15;12.10;;;;;;;;;;4998933;28;20030;-62
2022/01/12 07:35:33;;;;;;;43.60;12.70;;;;;;;;;;4998701;28;20482;-62
2022/01/12 07:37:59;;;;;;;27.77;11.05;;;;;;;;;;4998225;28;20049;-62
2022/01/12 07:40:25;;;;;;;32.22;10.27;;;;;;;;;;4998923;28;20470;-62
2022/01/12 07:42:51;;;;;;;41.67;11.38;;;;;;;;;;4999045;28;20030;-62
2022/01/12 07:45:19;;;;;;;26.88;10.63;;;;;;;;;;4964519;28;20041;-62
2022/01/12 07:47:47;;;;;;;27.70;10.57;;;;;;;;;;4981897;28;20054;-62
2022/01/12 07:50:14;;;;;;;28.88;12.20;;;;;;;;;;4999132;28;20038;-62
2022/01/12 07:52:40;;;;;;;35.08;12.60;;;;;;;;;;4999348;28;20033;-62
2022/01/12 07:55:07;;;;;;;33.58;13.48;;;;;;;;;;4999326;28;20429;-62
2022/01/12 07:57:33;;;;;;;35.00;13.02;;;;;;;;;;4999225;28;20382;-62
2022/01/12 07:59:59;;;;;;;36.72;13.15;;;;;;;;;;4998535;28;20030;-62
2022/01/12 08:02:25;;;;;;;37.58;13.75;;;;;;;;;;4997429;28;20482;-62
2022/01/12 08:04:52;;;;;;;37.60;13.75;;;;;;;;;;4998634;28;20044;-62
2022/01/12 08:07:18;;;;;;;36.15;13.30;;;;;;;;;;4995042;28;20026;-62
2022/01/12 08:09:44;;;;;;;31.10;12.60;;;;;;;;;;4997728;28;20521;-62
2022/01/12 08:12:11;;;;;;;27.60;10.82;;;;;;;;;;4996901;28;20278;-62
2022/01/12 08:14:37;;;;;;;25.80;11.02;;;;;;;;;;4994833;28;20164;-62
2022/01/12 08:17:03;;;;;;;31.60;11.23;;;;;;;;;;5000516;28;20567;-62
2022/01/12 08:19:34;;;;;;;31.77;10.07;;;;;;;;;;5000986;28;20022;-62
2022/01/12 08:22:00;;;;;;;31.63;11.73;;;;;;;;;;4995552;28;20116;-62
2022/01/12 08:24:26;;;;;;;32.22;10.48;;;;;;;;;;5006222;28;20030;-62
2022/01/12 08:26:52;;;;;;;29.85;12.05;;;;;;;;;;4997895;28;20510;-62
2022/01/12 08:29:18;;;;;;;30.65;11.40;;;;;;;;;;4996386;28;20407;-62
2022/01/12 08:31:45;;;;;;;27.88;12.45;;;;;;;;;;4993944;28;20038;-62
2022/01/12 08:34:12;;;;;;;39.72;14.50;;;;;;;;;;4992047;28;20045;-62
2022/01/12 08:36:42;;;;;;;46.40;16.77;;;;;;;;;;4993929;28;20030;-62
2022/01/12 08:39:08;;;;;;;45.80;14.45;;;;;;;;;;4998047;28;20048;-62
2022/01/12 08:41:35;;;;;;;49.10;17.83;;;;;;;;;;5007133;28;20501;-62
2022/01/12 08:44:02;;;;;;;40.38;15.18;;;;;;;;;;4993613;28;20034;-62
2022/01/12 08:46:29;;;;;;;34.00;14.48;;;;;;;;;;4994062;28;20030;-62
2022/01/12 08:48:55;;;;;;;38.00;15.02;;;;;;;;;;4993474;28;20034;-62
2022/01/12 08:51:21;;;;;;;37.60;15.70;;;;;;;;;;4994220;28;20037;-62
2022/01/12 08:53:47;;;;;;;34.55;15.13;;;;;;;;;;4993930;28;20376;-62
2022/01/12 08:56:14;;;;;;;40.80;13.52;;;;;;;;;;4994207;28;20030;-62
2022/01/12 08:58:41;;;;;;;35.05;12.45;;;;;;;;;;4996856;28;20034;-62
2022/01/12 09:01:09;;;;;;;39.53;14.68;;;;;;;;;;4994007;28;20030;-62
2022/01/12 09:03:35;;;;;;;32.40;12.73;;;;;;;;;;4995079;28;20034;-62
2022/01/12 09:06:03;;;;;;;28.48;11.27;;;;;;;;;;4998378;28;20383;-62
2022/01/12 09:08:29;;;;;;;29.73;11.00;;;;;;;;;;5003693;28;20022;-62
2022/01/12 09:10:55;;;;;;;33.80;11.25;;;;;;;;;;5000289;28;20057;-62
2022/01/12 09:13:21;;;;;;;25.08;10.88;;;;;;;;;;4995875;28;20049;-62
2022/01/12 09:15:47;;;;;;;29.02;10.55;;;;;;;;;;4991129;28;20519;-62
2022/01/12 09:18:15;;;;;;;25.17;11.18;;;;;;;;;;4993796;28;20083;-62
2022/01/12 09:20:41;;;;;;;24.88;10.88;;;;;;;;;;4993625;28;20109;-62
2022/01/12 09:23:07;;;;;;;23.02;10.15;;;;;;;;;;5001427;28;20101;-62
2022/01/12 09:25:36;;;;;;;23.55;10.32;;;;;;;;;;4995286;28;20077;-62
2022/01/12 09:28:03;;;;;;;23.92;10.13;;;;;;;;;;4998501;28;20019;-62
2022/01/12 09:30:29;;;;;;;25.77;9.85;;;;;;;;;;4993705;28;20022;-62
2022/01/12 09:32:56;;;;;;;27.92;10.35;;;;;;;;;;4993042;28;20034;-62
2022/01/12 09:35:22;;;;;;;24.83;10.60;;;;;;;;;;4998950;28;20030;-62
2022/01/12 09:37:48;;;;;;;20.05;10.35;;;;;;;;;;5008534;28;20558;-62
2022/01/12 09:40:14;;;;;;;22.77;10.32;;;;;;;;;;4993723;28;20460;-62
2022/01/12 09:42:43;;;;;;;24.35;10.70;;;;;;;;;;4993685;28;20076;-62
2022/01/12 09:45:14;;;;;;;24.20;10.38;;;;;;;;;;4998615;28;20026;-62
2022/01/12 09:47:40;;;;;;;17.30;9.95;;;;;;;;;;4992702;28;20029;-62
2022/01/12 09:50:07;;;;;;;17.80;9.00;;;;;;;;;;4993275;28;20121;-62
2022/01/12 09:52:33;;;;;;;17.85;8.30;;;;;;;;;;4995430;28;20076;-62
2022/01/12 09:54:59;;;;;;;16.25;7.47;;;;;;;;;;4993304;28;20042;-62
2022/01/12 09:57:25;;;;;;;16.75;7.78;;;;;;;;;;4993044;28;20026;-62
2022/01/12 09:59:51;;;;;;;17.52;7.85;;;;;;;;;;5006142;28;20077;-62
2022/01/12 10:02:18;;;;;;;16.73;7.72;;;;;;;;;;5008837;28;20030;-62
2022/01/12 10:04:44;;;;;;;14.70;7.30;;;;;;;;;;4998521;28;20069;-62
2022/01/12 10:07:11;;;;;;;18.30;8.82;;;;;;;;;;4992515;28;20030;-62
2022/01/12 10:09:44;;;;;;;16.83;8.05;;;;;;;;;;5005372;28;20076;-62
2022/01/12 10:12:13;;;;;;;16.63;8.32;;;;;;;;;;4993230;28;20034;-62
2022/01/12 10:14:49;;;;;;;15.43;8.05;;;;;;;;;;4980150;28;20034;-62
2022/01/12 10:17:16;;;;;;;14.00;8.00;;;;;;;;;;4993554;28;20065;-62
2022/01/12 10:19:43;;;;;;;13.95;8.40;;;;;;;;;;4997692;28;20043;-62
2022/01/12 10:22:11;;;;;;;15.00;7.75;;;;;;;;;;4991110;28;20032;-62
2022/01/12 10:24:42;;;;;;;12.63;7.72;;;;;;;;;;5007819;28;20027;-62
2022/01/12 10:27:19;;;;;;;10.95;6.32;;;;;;;;;;5001201;28;20040;-62
2022/01/12 10:29:46;;;;;;;13.85;6.90;;;;;;;;;;4996968;28;20496;-62
2022/01/12 10:32:16;;;;;;;14.93;7.80;;;;;;;;;;4992846;28;20406;-62
2022/01/12 10:34:46;;;;;;;13.20;7.78;;;;;;;;;;4991830;28;20043;-62
2022/01/12 10:37:16;;;;;;;16.00;8.88;;;;;;;;;;4993265;28;20018;-62
2022/01/12 10:39:44;;;;;;;18.05;9.35;;;;;;;;;;4992001;28;20034;-62
2022/01/12 10:42:12;;;;;;;16.40;8.98;;;;;;;;;;4992826;28;20497;-62
2022/01/12 10:44:40;;;;;;;22.08;9.10;;;;;;;;;;4992551;28;20073;-62
2022/01/12 10:47:12;;;;;;;24.58;9.38;;;;;;;;;;4992269;28;20030;-62
2022/01/12 10:49:39;;;;;;;23.77;9.32;;;;;;;;;;4992864;28;20054;-62
2022/01/12 10:52:09;;;;;;;18.75;9.68;;;;;;;;;;4991416;28;20030;-62
2022/01/12 10:55:02;;;;;;;21.88;9.32;;;;;;;;;;4992145;28;20033;-62
2022/01/12 10:57:33;;;;;;;18.90;9.18;;;;;;;;;;4983013;28;20037;-62
2022/01/12 11:00:05;;;;;;;23.02;8.52;;;;;;;;;;4991798;28;20062;-63
2022/01/12 11:02:32;;;;;;;18.90;7.82;;;;;;;;;;4992589;28;20061;-62
2022/01/12 11:04:59;;;;;;;18.55;8.10;;;;;;;;;;4992506;28;20482;-62
2022/01/12 11:07:26;;;;;;;15.13;7.38;;;;;;;;;;4992401;28;20034;-62
2022/01/12 11:09:56;;;;;;;14.68;7.32;;;;;;;;;;4978033;28;20431;-62
2022/01/12 11:12:22;;;;;;;14.82;6.57;;;;;;;;;;4993950;28;20026;-62
2022/01/12 11:14:48;;;;;;;16.00;6.57;;;;;;;;;;4986201;28;20557;-62
2022/01/12 11:17:15;;;;;;;13.38;6.63;;;;;;;;;;4991761;28;20022;-62
2022/01/12 11:19:45;;;;;;;14.75;7.47;;;;;;;;;;4990517;28;20551;-62
2022/01/12 11:22:25;;;;;;;12.50;6.20;;;;;;;;;;4990836;28;20026;-62
2022/01/12 11:24:53;;;;;;;14.40;5.28;;;;;;;;;;4991159;28;20458;-62
2022/01/12 11:27:20;;;;;;;12.90;6.10;;;;;;;;;;4987900;28;20065;-62
2022/01/12 11:29:47;;;;;;;9.32;5.32;;;;;;;;;;4986864;28;20497;-63
2022/01/12 11:32:21;;;;;;;12.68;6.18;;;;;;;;;;4990886;28;20077;-62
2022/01/12 11:34:58;;;;;;;9.73;4.93;;;;;;;;;;4988415;28;20117;-63
2022/01/12 11:37:24;;;;;;;8.27;4.90;;;;;;;;;;4986059;28;20368;-62
2022/01/12 11:39:50;;;;;;;11.70;5.63;;;;;;;;;;4990285;28;20022;-62
2022/01/12 11:42:18;;;;;;;8.15;5.10;;;;;;;;;;4987696;28;20033;-62
2022/01/12 11:44:44;;;;;;;12.75;5.82;;;;;;;;;;4993868;28;20023;-62
2022/01/12 11:47:18;;;;;;;10.63;6.55;;;;;;;;;;4991944;28;20034;-62
2022/01/12 11:49:46;;;;;;;11.02;6.35;;;;;;;;;;4992001;28;20064;-62
2022/01/12 11:52:17;;;;;;;11.95;7.15;;;;;;;;;;4989268;28;20399;-62
2022/01/12 11:54:45;;;;;;;17.23;8.63;;;;;;;;;;4995642;28;20074;-62
2022/01/12 11:57:16;;;;;;;14.23;7.75;;;;;;;;;;4992331;28;20015;-62
2022/01/12 12:00:04;;;;;;;14.43;7.45;;;;;;;;;;4992586;28;20034;-62
2022/01/12 12:02:42;;;;;;;13.77;7.45;;;;;;;;;;4988654;28;20030;-62
2022/01/12 12:05:09;;;;;;;11.43;7.32;;;;;;;;;;4993016;28;20026;-62
2022/01/12 12:07:52;;;;;;;13.20;7.35;;;;;;;;;;4995047;28;20030;-62
2022/01/12 12:10:19;;;;;;;9.38;6.05;;;;;;;;;;4993059;28;20026;-63
2022/01/12 12:12:46;;;;;;;12.82;6.70;;;;;;;;;;4994854;28;20088;-63
2022/01/12 12:15:14;;;;;;;12.20;6.70;;;;;;;;;;4976091;28;20502;-62
2022/01/12 12:17:41;;;;;;;14.35;7.55;;;;;;;;;;4992103;28;20037;-62
2022/01/12 12:20:09;;;;;;;13.55;7.97;;;;;;;;;;4989988;28;20072;-63
2022/01/12 12:22:38;;;;;;;17.27;10.05;;;;;;;;;;4990087;28;20033;-62
2022/01/12 12:25:07;;;;;;;19.60;10.35;;;;;;;;;;4994491;28;20026;-63
2022/01/12 12:27:34;;;;;;;21.98;11.18;;;;;;;;;;4990400;28;20030;-63
2022/01/12 12:30:00;;;;;;;24.77;12.32;;;;;;;;;;4997230;28;20030;-63
2022/01/12 12:32:37;;;;;;;23.90;13.07;;;;;;;;;;4991769;28;20026;-67
2022/01/12 12:35:08;;;;;;;30.50;13.07;;;;;;;;;;4991250;28;20161;-68
2022/01/12 12:37:41;;;;;;;27.17;12.80;;;;;;;;;;4988441;28;20102;-67
2022/01/12 12:40:22;;;;;;;27.05;13.05;;;;;;;;;;4986144;28;20082;-67
2022/01/12 12:43:02;;;;;;;28.17;13.50;;;;;;;;;;4987711;28;20423;-68
2022/01/12 12:45:40;;;;;;;25.55;14.10;;;;;;;;;;4991786;28;20030;-67
2022/01/12 12:48:06;;;;;;;33.58;15.90;;;;;;;;;;4993708;28;20038;-68
2022/01/12 12:50:33;;;;;;;33.78;15.40;;;;;;;;;;4990932;28;20030;-68
2022/01/12 12:53:00;;;;;;;34.20;15.88;;;;;;;;;;4997037;28;20026;-67
2022/01/12 12:55:26;;;;;;;30.70;14.93;;;;;;;;;;4994340;28;20173;-68
2022/01/12 12:57:53;;;;;;;26.15;14.25;;;;;;;;;;4993060;28;20033;-68
2022/01/12 13:00:24;;;;;;;30.95;13.65;;;;;;;;;;4991499;28;20019;-68
2022/01/12 13:02:51;;;;;;;34.75;15.55;;;;;;;;;;4990836;28;20407;-67
2022/01/12 13:05:19;;;;;;;31.15;15.07;;;;;;;;;;4989861;28;20081;-68
2022/01/12 13:07:46;;;;;;;33.75;16.75;;;;;;;;;;4994186;28;20064;-68
2022/01/12 13:10:14;;;;;;;36.60;15.80;;;;;;;;;;4988313;28;20486;-67
2022/01/12 13:12:45;;;;;;;34.28;15.77;;;;;;;;;;4993934;28;20383;-68
2022/01/12 13:15:17;;;;;;;43.90;16.90;;;;;;;;;;4988991;28;20114;-68
2022/01/12 13:17:43;;;;;;;37.28;17.00;;;;;;;;;;4991404;28;20030;-67
2022/01/12 13:22:47;;;;;;;44.22;17.35;;;;;;;;;;4996545;28;20041;-67
2022/01/12 13:25:15;;;;;;;34.75;16.00;;;;;;;;;;4997010;28;20018;-68
2022/01/12 13:27:42;;;;;;;37.78;15.13;;;;;;;;;;5004489;28;20085;-67
2022/01/12 13:30:09;;;;;;;29.73;15.00;;;;;;;;;;4996964;28;20034;-67
2022/01/12 13:32:37;;;;;;;40.88;16.35;;;;;;;;;;5000052;28;20038;-67
2022/01/12 13:35:09;;;;;;;34.97;16.98;;;;;;;;;;5010012;28;20025;-67
2022/01/12 13:37:35;;;;;;;45.25;18.98;;;;;;;;;;4993762;28;20585;-68
2022/01/12 13:40:03;;;;;;;49.05;19.67;;;;;;;;;;4991520;28;20030;-68
2022/01/12 13:42:30;;;;;;;46.38;20.48;;;;;;;;;;4985415;28;20030;-68
2022/01/12 13:45:08;;;;;;;54.00;21.38;;;;;;;;;;4990840;28;20065;-67
2022/01/12 13:47:36;;;;;;;49.67;20.58;;;;;;;;;;4991583;28;20109;-67
2022/01/12 13:50:09;;;;;;;55.08;22.75;;;;;;;;;;4972995;28;20042;-68
2022/01/12 13:52:36;;;;;;;53.17;22.63;;;;;;;;;;4992131;28;20510;-67
2022/01/12 13:55:10;;;;;;;49.13;22.05;;;;;;;;;;4975535;28;20023;-67
2022/01/12 13:57:37;;;;;;;53.35;22.58;;;;;;;;;;4984728;28;20050;-67
2022/01/12 14:00:05;;;;;;;52.65;24.33;;;;;;;;;;4994171;28;20069;-67
2022/01/12 14:02:31;;;;;;;57.00;23.38;;;;;;;;;;4990950;28;20482;-67
2022/01/12 14:05:08;;;;;;;57.28;23.48;;;;;;;;;;4988508;28;20080;-68
2022/01/12 14:07:39;;;;;;;57.42;23.20;;;;;;;;;;4986514;28;20606;-68
2022/01/12 14:10:06;;;;;;;54.42;23.17;;;;;;;;;;4987382;28;20084;-68
2022/01/12 14:12:33;;;;;;;52.60;22.55;;;;;;;;;;4990816;28;20542;-67
2022/01/12 14:15:07;;;;;;;54.38;23.10;;;;;;;;;;4991101;28;20057;-67
2022/01/12 14:17:36;;;;;;;57.47;22.52;;;;;;;;;;4988063;28;20018;-67
2022/01/12 14:20:12;;;;;;;49.63;21.73;;;;;;;;;;4991125;28;20030;-67
2022/01/12 14:22:46;;;;;;;47.92;22.85;;;;;;;;;;4991140;28;20030;-67
2022/01/12 14:25:13;;;;;;;47.60;20.33;;;;;;;;;;4993130;28;20080;-67
2022/01/12 14:27:42;;;;;;;60.88;23.20;;;;;;;;;;4995943;28;20053;-67
2022/01/12 14:30:10;;;;;;;54.30;20.17;;;;;;;;;;4990559;28;20036;-67
2022/01/12 14:32:36;;;;;;;48.63;17.80;;;;;;;;;;4994616;28;20030;-66
2022/01/12 14:35:08;;;;;;;39.70;17.10;;;;;;;;;;4996481;28;20025;-66
2022/01/12 14:37:34;;;;;;;43.88;17.80;;;;;;;;;;4994241;28;20072;-66
2022/01/12 14:40:01;;;;;;;47.97;19.08;;;;;;;;;;4990620;28;20021;-66
2022/01/12 14:42:27;;;;;;;56.60;19.35;;;;;;;;;;4994619;28;20109;-66
2022/01/12 14:44:54;;;;;;;60.33;21.42;;;;;;;;;;4990132;28;20078;-66
2022/01/12 14:47:20;;;;;;;59.28;19.45;;;;;;;;;;4990911;28;20474;-66
2022/01/12 14:49:46;;;;;;;52.78;20.63;;;;;;;;;;4987134;28;20058;-66
2022/01/12 14:52:12;;;;;;;49.53;20.13;;;;;;;;;;4995633;28;20034;-66
2022/01/12 14:54:38;;;;;;;48.72;19.33;;;;;;;;;;4996343;28;20548;-66
2022/01/12 14:57:05;;;;;;;43.65;20.05;;;;;;;;;;4992986;28;20513;-66
2022/01/12 14:59:31;;;;;;;53.63;19.90;;;;;;;;;;4995666;28;20027;-72
2022/01/12 15:01:57;;;;;;;47.08;17.77;;;;;;;;;;4999317;28;20026;-67
2022/01/12 15:04:27;;;;;;;44.60;18.33;;;;;;;;;;4995176;28;20415;-68
2022/01/12 15:06:53;;;;;;;47.10;18.52;;;;;;;;;;4986947;28;20391;-67
2022/01/12 15:09:19;;;;;;;48.58;18.73;;;;;;;;;;4990124;28;20521;-66
2022/01/12 15:11:49;;;;;;;48.00;18.88;;;;;;;;;;4986207;28;20030;-66
2022/01/12 15:14:58;;;;;;;46.10;19.75;;;;;;;;;;4991203;28;20025;-66
2022/01/12 15:17:07;;;;;;;43.80;18.50;;;;;;;;;;4986029;28;20062;-66
2022/01/12 15:19:33;;;;;;;47.22;19.05;;;;;;;;;;4997709;28;20094;-66
2022/01/12 15:21:59;;;;;;;51.13;20.63;;;;;;;;;;4994064;28;20425;-66
2022/01/12 15:24:26;;;;;;;50.72;19.02;;;;;;;;;;4993050;28;20019;-66
2022/01/12 15:26:52;;;;;;;44.80;16.55;;;;;;;;;;4993181;28;20085;-66
2022/01/12 15:29:18;;;;;;;41.67;16.95;;;;;;;;;;4992701;28;20384;-66
2022/01/12 15:31:44;;;;;;;42.22;17.67;;;;;;;;;;4992817;28;20057;-66
2022/01/12 15:34:10;;;;;;;35.90;15.65;;;;;;;;;;4997537;28;20038;-67
2022/01/12 15:36:37;;;;;;;43.58;17.52;;;;;;;;;;5003170;28;20081;-67
2022/01/12 15:39:04;;;;;;;42.47;16.73;;;;;;;;;;4997466;28;20061;-66
2022/01/12 15:41:30;;;;;;;35.78;15.15;;;;;;;;;;4993213;28;20034;-66
2022/01/12 15:43:56;;;;;;;45.88;16.67;;;;;;;;;;4998442;28;20101;-67